createdAt,value
2023-01-29T00:00:36.460Z,96835.63
2023-01-29T00:03:03.289Z,96846.34
2023-01-29T00:05:29.941Z,96852.47
2023-01-29T00:07:57.055Z,96854.00
2023-01-29T00:10:25.615Z,96858.44
2023-01-29T00:12:52.869Z,96866.03
2023-01-29T00:15:20.503Z,96868.38
2023-01-29T00:17:47.083Z,96877.91
2023-01-29T00:20:13.922Z,96867.34
2023-01-29T00:22:40.784Z,96869.22
2023-01-29T00:25:08.155Z,96877.72
2023-01-29T00:27:34.800Z,96866.00
2023-01-29T00:30:12.880Z,96867.75
2023-01-29T00:32:40.758Z,96862.75
2023-01-29T00:35:08.537Z,96865.75
2023-01-29T00:37:35.367Z,96874.16
2023-01-29T00:40:01.967Z,96865.53
2023-01-29T00:42:47.111Z,96871.56
2023-01-29T00:45:13.870Z,96858.78
2023-01-29T00:47:40.441Z,96855.03
2023-01-29T00:50:10.904Z,96850.84
2023-01-29T00:52:37.560Z,96849.63
2023-01-29T00:55:05.731Z,96845.84
2023-01-29T00:57:34.543Z,96829.63
2023-01-29T01:00:01.931Z,96832.31
2023-01-29T01:02:47.523Z,96829.63
2023-01-29T01:05:19.771Z,96834.00
2023-01-29T01:07:52.557Z,96837.84
2023-01-29T01:10:25.259Z,96844.28
2023-01-29T01:12:56.717Z,96849.53
2023-01-29T01:15:25.641Z,96843.88
2023-01-29T01:17:57.723Z,96835.13
2023-01-29T01:20:26.318Z,96833.06
2023-01-29T01:22:56.435Z,96826.63
2023-01-29T01:25:27.302Z,96828.34
2023-01-29T01:27:55.176Z,96812.22
2023-01-29T01:30:23.112Z,96806.25
2023-01-29T01:32:50.122Z,96801.31
2023-01-29T01:35:17.039Z,96797.63
2023-01-29T01:37:43.589Z,96802.88
2023-01-29T01:40:19.259Z,96803.69
2023-01-29T01:42:55.677Z,96798.53
2023-01-29T01:45:32.593Z,96798.50
2023-01-29T01:48:23.819Z,96787.09
2023-01-29T01:50:56.621Z,96794.69
2023-01-29T01:53:34.596Z,96797.69
2023-01-29T01:56:05.948Z,96793.19
2023-01-29T01:58:37.008Z,96792.78
2023-01-29T02:01:09.378Z,96793.66
2023-01-29T02:04:13.722Z,96794.66
2023-01-29T02:06:59.801Z,96804.88
2023-01-29T02:09:39.527Z,96812.19
2023-01-29T02:12:13.091Z,96806.50
2023-01-29T02:14:41.418Z,96810.22
2023-01-29T02:17:14.260Z,96814.09
2023-01-29T02:20:11.467Z,96813.19
2023-01-29T02:22:57.100Z,96817.13
2023-01-29T02:25:42.550Z,96826.78
2023-01-29T02:28:49.016Z,96813.66
2023-01-29T02:31:34.976Z,96815.31
2023-01-29T02:34:14.855Z,96807.19
2023-01-29T02:36:50.706Z,96801.94
2023-01-29T02:39:47.411Z,96795.19
2023-01-29T02:42:35.919Z,96797.31
2023-01-29T02:45:12.658Z,96802.16
2023-01-29T02:47:58.603Z,96807.31
2023-01-29T02:50:47.731Z,96809.38
2023-01-29T02:53:18.975Z,96805.25
2023-01-29T02:56:07.451Z,96800.34
2023-01-29T02:58:43.018Z,96796.16
2023-01-29T03:01:33.012Z,96805.78
2023-01-29T03:04:06.200Z,96801.28
2023-01-29T03:06:40.821Z,96791.75
2023-01-29T03:09:09.864Z,96793.97
2023-01-29T03:11:42.063Z,96791.81
2023-01-29T03:14:53.057Z,96792.59
2023-01-29T03:17:25.743Z,96792.59
2023-01-29T03:19:52.558Z,96797.22
2023-01-29T03:22:22.031Z,96802.34
2023-01-29T03:25:12.325Z,96799.63
2023-01-29T03:28:04.791Z,96798.19
2023-01-29T03:30:55.311Z,96803.84
2023-01-29T03:33:26.476Z,96812.69
2023-01-29T03:36:02.554Z,96812.13
2023-01-29T03:38:31.948Z,96818.00
2023-01-29T03:41:12.038Z,96817.59
2023-01-29T03:43:54.327Z,96821.50
2023-01-29T03:46:36.403Z,96817.34
2023-01-29T03:49:09.105Z,96811.47
2023-01-29T03:51:49.415Z,96803.38
2023-01-29T03:54:26.479Z,96812.00
2023-01-29T03:57:16.301Z,96812.19
2023-01-29T04:00:01.181Z,96816.31
2023-01-29T04:02:32.523Z,96814.47
2023-01-29T04:05:12.155Z,96820.03
2023-01-29T04:07:41.891Z,96822.28
2023-01-29T04:10:15.954Z,96817.38
2023-01-29T04:12:48.515Z,96812.00
2023-01-29T04:15:17.657Z,96816.38
2023-01-29T04:17:50.752Z,96821.81
2023-01-29T04:20:17.998Z,96816.69
2023-01-29T04:22:51.775Z,96817.72
2023-01-29T04:25:28.997Z,96814.59
2023-01-29T04:27:55.616Z,96817.94
2023-01-29T04:30:54.764Z,96808.63
2023-01-29T04:33:58.215Z,96814.19
2023-01-29T04:36:41.580Z,96806.94
2023-01-29T04:39:19.346Z,96809.66
2023-01-29T04:42:04.711Z,96805.34
2023-01-29T04:44:50.922Z,96801.16
2023-01-29T04:47:27.062Z,96800.97
2023-01-29T04:50:23.952Z,96795.41
2023-01-29T04:53:07.295Z,96799.84
2023-01-29T04:55:48.609Z,96804.34
2023-01-29T04:58:56.867Z,96787.00
2023-01-29T05:01:29.881Z,96782.94
2023-01-29T05:03:58.352Z,96775.97
2023-01-29T05:06:26.540Z,96783.13
2023-01-29T05:08:55.278Z,96770.91
2023-01-29T05:11:23.748Z,96779.78
2023-01-29T05:13:51.020Z,96775.13
2023-01-29T05:16:42.932Z,96770.09
2023-01-29T05:19:13.923Z,96775.91
2023-01-29T05:21:43.844Z,96779.03
2023-01-29T05:24:17.712Z,96777.84
2023-01-29T05:27:05.396Z,96773.38
2023-01-29T05:29:32.132Z,96788.63
2023-01-29T05:31:58.867Z,96789.00
2023-01-29T05:34:25.689Z,96790.78
2023-01-29T05:36:52.330Z,96788.88
2023-01-29T05:39:18.904Z,96794.47
2023-01-29T05:41:45.451Z,96794.25
2023-01-29T05:44:12.297Z,96790.31
2023-01-29T05:46:39.363Z,96790.94
2023-01-29T05:49:06.455Z,96793.69
2023-01-29T05:51:33.536Z,96795.78
2023-01-29T05:54:00.083Z,96784.75
2023-01-29T05:56:26.710Z,96778.34
2023-01-29T05:58:53.284Z,96791.19
2023-01-29T06:01:25.830Z,96794.31
2023-01-29T06:03:52.442Z,96786.78
2023-01-29T06:06:19.138Z,96786.88
2023-01-29T06:08:45.944Z,96791.25
2023-01-29T06:11:13.701Z,96782.56
2023-01-29T06:13:40.649Z,96768.09
2023-01-29T06:16:08.723Z,96777.78
2023-01-29T06:18:36.025Z,96778.19
2023-01-29T06:21:04.060Z,96771.16
2023-01-29T06:23:31.086Z,96758.63
2023-01-29T06:26:02.577Z,96761.69
2023-01-29T06:28:29.328Z,96752.13
2023-01-29T06:31:21.067Z,96762.94
2023-01-29T06:33:49.762Z,96754.97
2023-01-29T06:36:16.505Z,96756.03
2023-01-29T06:38:43.088Z,96767.53
2023-01-29T06:41:12.393Z,96765.25
2023-01-29T06:43:39.999Z,96765.34
2023-01-29T06:46:08.221Z,96767.38
2023-01-29T06:48:35.230Z,96775.63
2023-01-29T06:51:03.427Z,96784.91
2023-01-29T06:53:30.336Z,96777.31
2023-01-29T06:55:56.933Z,96776.28
2023-01-29T06:58:23.463Z,96780.38
2023-01-29T07:00:50.132Z,96767.19
2023-01-29T07:03:16.894Z,96774.59
2023-01-29T07:05:43.650Z,96773.16
2023-01-29T07:08:10.171Z,96769.44
2023-01-29T07:10:36.736Z,96777.91
2023-01-29T07:13:03.316Z,96781.00
2023-01-29T07:15:29.904Z,96783.47
2023-01-29T07:17:57.495Z,96777.72
2023-01-29T07:20:26.374Z,96768.63
2023-01-29T07:22:53.100Z,96768.22
2023-01-29T07:25:21.006Z,96768.22
2023-01-29T07:27:47.856Z,96768.84
2023-01-29T07:30:15.013Z,96774.81
2023-01-29T07:32:41.916Z,96766.97
2023-01-29T07:35:09.040Z,96774.41
2023-01-29T07:37:35.638Z,96792.97
2023-01-29T07:40:02.278Z,96794.81
2023-01-29T07:42:28.799Z,96793.38
2023-01-29T07:44:55.458Z,96799.16
2023-01-29T07:47:22.028Z,96815.44
2023-01-29T07:49:48.796Z,96836.25
2023-01-29T07:52:15.401Z,96843.69
2023-01-29T07:54:42.095Z,96842.03
2023-01-29T07:57:08.785Z,96842.84
2023-01-29T07:59:35.336Z,96841.63
2023-01-29T08:02:01.905Z,96828.84
2023-01-29T08:04:28.572Z,96833.38
2023-01-29T08:06:55.153Z,96840.63
2023-01-29T08:09:21.701Z,96840.81
2023-01-29T08:11:48.281Z,96838.75
2023-01-29T08:14:14.911Z,96830.09
2023-01-29T08:16:41.565Z,96817.28
2023-01-29T08:19:08.178Z,96813.16
2023-01-29T08:21:34.752Z,96803.06
2023-01-29T08:26:32.969Z,96799.91
2023-01-29T08:28:59.656Z,96791.72
2023-01-29T08:31:26.276Z,96796.88
2023-01-29T08:33:54.878Z,96795.41
2023-01-29T08:36:21.592Z,96795.84
2023-01-29T08:38:48.176Z,96807.81
2023-01-29T08:41:14.736Z,96807.75
2023-01-29T08:43:41.349Z,96823.88
2023-01-29T08:46:08.882Z,96831.06
2023-01-29T08:48:35.498Z,96832.94
2023-01-29T08:51:02.996Z,96836.44
2023-01-29T08:53:29.697Z,96831.66
2023-01-29T08:55:56.363Z,96828.09
2023-01-29T08:58:22.970Z,96825.50
2023-01-29T09:00:49.606Z,96818.91
2023-01-29T09:03:16.518Z,96825.69
2023-01-29T09:05:43.150Z,96825.19
2023-01-29T09:08:10.281Z,96839.38
2023-01-29T09:10:36.972Z,96835.72
2023-01-29T09:13:05.054Z,96843.53
2023-01-29T09:15:31.708Z,96835.16
2023-01-29T09:17:58.272Z,96839.06
2023-01-29T09:20:24.833Z,96841.38
2023-01-29T09:22:53.680Z,96844.09
2023-01-29T09:25:20.586Z,96856.31
2023-01-29T09:27:47.117Z,96839.38
2023-01-29T09:30:14.255Z,96844.91
2023-01-29T09:32:53.322Z,96839.31
2023-01-29T09:35:23.923Z,96846.22
2023-01-29T09:37:51.834Z,96839.94
2023-01-29T09:40:24.870Z,96842.66
2023-01-29T09:42:57.965Z,96840.59
2023-01-29T09:45:28.191Z,96842.50
2023-01-29T09:47:59.293Z,96854.94
2023-01-29T09:50:43.589Z,96862.97
2023-01-29T09:53:40.548Z,96852.41
2023-01-29T09:56:14.493Z,96846.63
2023-01-29T09:58:43.177Z,96846.91
2023-01-29T10:01:12.774Z,96853.47
2023-01-29T10:03:58.089Z,96843.25
2023-01-29T10:06:31.420Z,96846.75
2023-01-29T10:09:30.312Z,96850.63
2023-01-29T10:12:24.765Z,96837.63
2023-01-29T10:15:12.053Z,96834.72
2023-01-29T10:18:17.435Z,96831.34
2023-01-29T10:21:08.514Z,96820.47
2023-01-29T10:23:40.692Z,96816.56
2023-01-29T10:26:12.707Z,96810.63
2023-01-29T10:28:50.211Z,96814.81
2023-01-29T10:31:21.090Z,96802.91
2023-01-29T10:34:01.975Z,96800.97
2023-01-29T10:36:49.862Z,96786.56
2023-01-29T10:39:21.428Z,96797.78
2023-01-29T10:42:24.812Z,96806.16
2023-01-29T10:45:13.127Z,96794.78
2023-01-29T10:48:04.336Z,96797.75
2023-01-29T10:50:45.478Z,96787.81
2023-01-29T10:53:20.859Z,96784.88
2023-01-29T10:56:17.410Z,96775.66
2023-01-29T10:58:52.212Z,96762.56
2023-01-29T11:01:18.790Z,96751.03
2023-01-29T11:03:45.351Z,96749.53
2023-01-29T11:06:30.994Z,96750.75
2023-01-29T11:09:23.188Z,96750.41
2023-01-29T11:11:57.710Z,96751.91
2023-01-29T11:14:29.997Z,96757.34
2023-01-29T11:16:56.928Z,96753.44
2023-01-29T11:19:41.223Z,96733.91
2023-01-29T11:22:26.231Z,96745.13
2023-01-29T11:25:11.427Z,96735.03
2023-01-29T11:27:47.799Z,96730.81
2023-01-29T11:30:37.375Z,96737.78
2023-01-29T11:33:32.984Z,96742.13
2023-01-29T11:36:00.260Z,96726.41
2023-01-29T11:38:29.071Z,96731.97
2023-01-29T11:41:06.670Z,96731.09
2023-01-29T11:43:33.994Z,96723.94
2023-01-29T11:46:05.209Z,96704.47
2023-01-29T11:48:48.002Z,96708.25
2023-01-29T11:51:25.498Z,96690.66
2023-01-29T11:53:58.176Z,96700.94
2023-01-29T11:56:29.706Z,96703.44
2023-01-29T11:58:58.692Z,96697.84
2023-01-29T12:01:34.249Z,96695.19
2023-01-29T12:04:01.807Z,96695.72
2023-01-29T12:06:37.929Z,96688.81
2023-01-29T12:09:17.005Z,96689.56
2023-01-29T12:11:43.661Z,96680.13
2023-01-29T12:14:33.508Z,96675.22
2023-01-29T12:17:08.632Z,96670.50
2023-01-29T12:19:38.272Z,96668.84
2023-01-29T12:22:11.019Z,96668.88
2023-01-29T12:24:53.908Z,96668.09
2023-01-29T12:27:46.302Z,96666.88
2023-01-29T12:30:23.705Z,96655.69
2023-01-29T12:32:50.284Z,96660.16
2023-01-29T12:35:25.618Z,96663.44
2023-01-29T12:38:01.048Z,96659.16
2023-01-29T12:40:33.800Z,96659.53
2023-01-29T12:43:15.025Z,96642.31
2023-01-29T12:45:45.027Z,96641.34
2023-01-29T12:48:19.361Z,96643.06
2023-01-29T12:50:47.639Z,96646.09
2023-01-29T12:53:54.714Z,96654.50
2023-01-29T12:56:32.883Z,96646.78
2023-01-29T12:59:04.782Z,96636.47
2023-01-29T13:01:45.375Z,96637.94
2023-01-29T13:04:19.496Z,96628.66
2023-01-29T13:06:52.652Z,96629.59
2023-01-29T13:09:33.398Z,96634.75
2023-01-29T13:12:04.511Z,96631.72
2023-01-29T13:14:55.203Z,96628.69
2023-01-29T13:17:32.984Z,96627.88
2023-01-29T13:20:05.257Z,96611.78
2023-01-29T13:22:39.370Z,96610.59
2023-01-29T13:25:06.783Z,96598.44
2023-01-29T13:27:35.070Z,96605.22
2023-01-29T13:30:02.205Z,96604.94
2023-01-29T13:32:34.949Z,96601.59
2023-01-29T13:35:12.983Z,96611.81
2023-01-29T13:37:52.151Z,96595.03
2023-01-29T13:40:26.921Z,96593.72
2023-01-29T13:42:57.264Z,96590.50
2023-01-29T13:45:45.720Z,96593.28
2023-01-29T13:48:32.591Z,96596.25
2023-01-29T13:51:04.702Z,96593.72
2023-01-29T13:53:40.875Z,96580.63
2023-01-29T13:56:29.209Z,96590.38
2023-01-29T13:58:56.976Z,96578.50
2023-01-29T14:01:48.425Z,96580.31
2023-01-29T14:04:25.455Z,96575.84
2023-01-29T14:06:54.619Z,96558.44
2023-01-29T14:09:50.159Z,96562.06
2023-01-29T14:12:22.493Z,96556.19
2023-01-29T14:14:49.146Z,96559.38
2023-01-29T14:17:17.813Z,96550.03
2023-01-29T14:19:53.335Z,96557.09
2023-01-29T14:22:22.819Z,96551.03
2023-01-29T14:24:55.810Z,96548.22
2023-01-29T14:27:27.602Z,96528.34
2023-01-29T14:30:03.822Z,96523.69
2023-01-29T14:32:30.494Z,96527.94
2023-01-29T14:35:04.964Z,96528.88
2023-01-29T14:37:35.419Z,96528.53
2023-01-29T14:40:19.797Z,96515.28
2023-01-29T14:43:19.967Z,96519.38
2023-01-29T14:45:50.077Z,96527.44
2023-01-29T14:48:45.735Z,96523.00
2023-01-29T14:51:17.932Z,96514.81
2023-01-29T14:54:13.868Z,96511.88
2023-01-29T14:56:47.771Z,96517.16
2023-01-29T14:59:21.046Z,96516.78
2023-01-29T15:01:54.297Z,96516.44
2023-01-29T15:04:26.160Z,96503.66
2023-01-29T15:07:05.190Z,96513.88
2023-01-29T15:09:42.388Z,96510.34
2023-01-29T15:12:33.407Z,96507.34
2023-01-29T15:14:59.930Z,96520.22
2023-01-29T15:17:32.782Z,96516.47
2023-01-29T15:19:59.403Z,96506.88
2023-01-29T15:22:26.202Z,96500.19
2023-01-29T15:25:21.721Z,96493.75
2023-01-29T15:27:48.963Z,96499.50
2023-01-29T15:30:22.304Z,96500.78
2023-01-29T15:32:49.533Z,96503.00
2023-01-29T15:35:19.513Z,96502.75
2023-01-29T15:38:01.145Z,96505.06
2023-01-29T15:40:27.758Z,96506.50
2023-01-29T15:42:54.369Z,96514.47
2023-01-29T15:45:31.932Z,96520.13
2023-01-29T15:48:03.798Z,96519.41
2023-01-29T15:50:32.833Z,96525.00
2023-01-29T15:53:03.768Z,96520.66
2023-01-29T15:55:31.857Z,96520.50
2023-01-29T15:57:59.726Z,96532.53
2023-01-29T16:00:29.782Z,96529.94
2023-01-29T16:03:01.492Z,96526.75
2023-01-29T16:05:30.729Z,96530.63
2023-01-29T16:07:59.291Z,96547.59
2023-01-29T16:10:32.704Z,96547.97
2023-01-29T16:13:02.642Z,96552.75
2023-01-29T16:15:37.939Z,96548.69
2023-01-29T16:18:23.799Z,96559.69
2023-01-29T16:20:53.873Z,96565.06
2023-01-29T16:23:25.664Z,96570.91
2023-01-29T16:28:46.515Z,96575.22
2023-01-29T16:31:20.807Z,96574.94
2023-01-29T16:33:49.543Z,96579.47
2023-01-29T16:36:21.822Z,96578.66
2023-01-29T16:39:00.601Z,96570.59
2023-01-29T16:41:32.212Z,96571.09
2023-01-29T16:44:17.171Z,96576.13
2023-01-29T16:46:48.715Z,96573.44
2023-01-29T16:49:30.522Z,96575.38
2023-01-29T16:52:15.427Z,96564.56
2023-01-29T16:54:43.347Z,96578.66
2023-01-29T16:57:26.254Z,96567.59
2023-01-29T16:59:59.073Z,96570.44
2023-01-29T17:02:35.519Z,96558.72
2023-01-29T17:05:06.121Z,96562.97
2023-01-29T17:07:34.334Z,96558.19
2023-01-29T17:10:04.382Z,96555.78
2023-01-29T17:12:32.099Z,96562.06
2023-01-29T17:15:05.844Z,96557.53
2023-01-29T17:17:35.838Z,96543.31
2023-01-29T17:20:23.000Z,96548.84
2023-01-29T17:22:49.688Z,96545.78
2023-01-29T17:25:18.654Z,96549.59
2023-01-29T17:27:51.576Z,96534.41
2023-01-29T17:30:21.442Z,96541.34
2023-01-29T17:32:48.175Z,96539.84
2023-01-29T17:35:17.495Z,96534.38
2023-01-29T17:37:44.407Z,96535.50
2023-01-29T17:40:31.470Z,96540.94
2023-01-29T17:42:58.146Z,96531.41
2023-01-29T17:45:24.823Z,96533.78
2023-01-29T17:47:51.507Z,96526.66
2023-01-29T17:50:31.822Z,96531.34
2023-01-29T17:52:58.645Z,96516.97
2023-01-29T17:55:25.374Z,96517.91
2023-01-29T17:57:51.868Z,96516.03
2023-01-29T18:00:21.990Z,96521.91
2023-01-29T18:02:49.176Z,96516.66
2023-01-29T18:05:17.251Z,96511.63
2023-01-29T18:07:47.086Z,96529.09
2023-01-29T18:10:18.548Z,96519.97
2023-01-29T18:12:45.514Z,96521.59
2023-01-29T18:15:13.209Z,96520.06
2023-01-29T18:17:40.434Z,96522.31
2023-01-29T18:20:23.457Z,96524.03
2023-01-29T18:22:50.190Z,96516.75
2023-01-29T18:25:17.426Z,96518.50
2023-01-29T18:27:44.647Z,96515.22
2023-01-29T18:30:12.736Z,96518.38
2023-01-29T18:32:39.281Z,96510.41
2023-01-29T18:35:06.663Z,96512.31
2023-01-29T18:37:33.791Z,96510.81
2023-01-29T18:40:00.391Z,96514.78
2023-01-29T18:42:26.922Z,96506.94
2023-01-29T18:44:55.571Z,96499.69
2023-01-29T18:47:23.633Z,96497.22
2023-01-29T18:49:51.893Z,96491.72
2023-01-29T18:52:18.659Z,96495.72
2023-01-29T18:54:45.197Z,96494.53
2023-01-29T18:57:11.706Z,96485.66
2023-01-29T18:59:40.876Z,96485.28
2023-01-29T19:02:08.072Z,96486.34
2023-01-29T19:04:34.632Z,96496.41
2023-01-29T19:07:01.281Z,96494.78
2023-01-29T19:09:27.807Z,96499.34
2023-01-29T19:11:54.349Z,96499.47
2023-01-29T19:14:21.029Z,96503.78
2023-01-29T19:16:47.710Z,96497.00
2023-01-29T19:19:14.258Z,96496.06
2023-01-29T19:21:40.814Z,96478.63
2023-01-29T19:24:10.032Z,96488.34
2023-01-29T19:26:36.668Z,96481.56
2023-01-29T19:29:04.273Z,96477.59
2023-01-29T19:31:32.016Z,96477.91
2023-01-29T19:33:58.872Z,96481.56
2023-01-29T19:36:25.837Z,96476.88
2023-01-29T19:38:52.358Z,96476.66
2023-01-29T19:41:19.023Z,96470.09
2023-01-29T19:43:46.415Z,96471.00
2023-01-29T19:46:13.008Z,96474.66
2023-01-29T19:48:39.600Z,96465.06
2023-01-29T19:51:10.442Z,96466.81
2023-01-29T19:53:39.055Z,96464.59
2023-01-29T19:56:08.386Z,96460.50
2023-01-29T19:58:38.992Z,96448.19
2023-01-29T20:01:14.912Z,96441.38
2023-01-29T20:03:42.175Z,96451.31
2023-01-29T20:06:08.922Z,96450.88
2023-01-29T20:08:36.009Z,96440.53
2023-01-29T20:11:03.152Z,96441.72
2023-01-29T20:13:29.907Z,96449.09
2023-01-29T20:15:56.716Z,96448.41
2023-01-29T20:18:23.501Z,96448.50
2023-01-29T20:20:52.993Z,96445.13
2023-01-29T20:23:36.641Z,96436.78
2023-01-29T20:26:04.199Z,96425.94
2023-01-29T20:28:30.883Z,96444.53
2023-01-29T20:30:58.929Z,96447.47
2023-01-29T20:33:26.122Z,96437.16
2023-01-29T20:35:57.656Z,96440.56
2023-01-29T20:38:26.079Z,96439.88
2023-01-29T20:40:52.640Z,96443.97
2023-01-29T20:43:19.169Z,96451.91
2023-01-29T20:45:45.816Z,96454.13
2023-01-29T20:48:12.567Z,96441.38
2023-01-29T20:50:39.192Z,96456.13
2023-01-29T20:53:06.593Z,96454.38
2023-01-29T20:55:33.355Z,96443.94
2023-01-29T20:58:05.083Z,96427.50
2023-01-29T21:00:33.787Z,96417.09
2023-01-29T21:03:00.587Z,96401.38
2023-01-29T21:05:27.165Z,96406.38
2023-01-29T21:07:53.836Z,96401.00
2023-01-29T21:10:20.439Z,96400.19
2023-01-29T21:12:47.183Z,96420.88
2023-01-29T21:15:15.204Z,96410.69
2023-01-29T21:17:41.751Z,96401.34
2023-01-29T21:20:09.852Z,96393.25
2023-01-29T21:22:36.641Z,96384.31
2023-01-29T21:25:03.385Z,96391.56
2023-01-29T21:27:29.984Z,96393.13
2023-01-29T21:29:57.229Z,96382.78
2023-01-29T21:32:23.891Z,96371.06
2023-01-29T21:34:52.654Z,96365.06
2023-01-29T21:37:19.386Z,96370.63
2023-01-29T21:39:46.148Z,96366.31
2023-01-29T21:42:31.292Z,96373.09
2023-01-29T21:44:57.913Z,96358.31
2023-01-29T21:47:24.600Z,96359.84
2023-01-29T21:49:51.341Z,96363.09
2023-01-29T21:52:17.871Z,96364.00
2023-01-29T21:54:49.050Z,96360.75
2023-01-29T21:57:16.615Z,96373.44
2023-01-29T21:59:44.101Z,96361.72
2023-01-29T22:02:15.276Z,96364.22
2023-01-29T22:04:42.750Z,96375.06
2023-01-29T22:07:10.856Z,96369.22
2023-01-29T22:09:37.734Z,96367.56
2023-01-29T22:12:06.327Z,96357.41
2023-01-29T22:14:33.271Z,96345.31
2023-01-29T22:16:59.982Z,96343.81
2023-01-29T22:19:26.544Z,96329.78
2023-01-29T22:21:53.322Z,96334.50
2023-01-29T22:24:21.034Z,96333.25
2023-01-29T22:26:49.391Z,96328.75
2023-01-29T22:29:17.238Z,96332.84
2023-01-29T22:31:44.360Z,96333.88
2023-01-29T22:34:11.810Z,96330.06
2023-01-29T22:36:39.065Z,96318.22
2023-01-29T22:39:07.813Z,96327.97
2023-01-29T22:41:34.492Z,96329.19
2023-01-29T22:44:01.295Z,96316.59
2023-01-29T22:46:28.020Z,96327.22
2023-01-29T22:48:54.699Z,96310.78
2023-01-29T22:51:21.304Z,96330.63
2023-01-29T22:53:53.559Z,96339.50
2023-01-29T22:56:25.244Z,96339.94
2023-01-29T22:58:53.571Z,96333.28
2023-01-29T23:01:21.566Z,96335.41
2023-01-29T23:03:48.393Z,96349.63
2023-01-29T23:06:16.405Z,96343.53
2023-01-29T23:08:43.018Z,96340.28
2023-01-29T23:11:14.827Z,96329.28
2023-01-29T23:13:43.911Z,96329.63
2023-01-29T23:16:10.772Z,96324.28
2023-01-29T23:18:37.859Z,96334.69
2023-01-29T23:21:04.822Z,96319.47
2023-01-29T23:23:32.479Z,96331.47
2023-01-29T23:26:19.107Z,96340.16
2023-01-29T23:28:46.227Z,96327.84
2023-01-29T23:31:14.865Z,96312.81
2023-01-29T23:33:41.498Z,96330.53
2023-01-29T23:36:08.634Z,96316.19
2023-01-29T23:38:35.295Z,96318.59
2023-01-29T23:41:01.810Z,96303.97
2023-01-29T23:43:29.426Z,96314.94
2023-01-29T23:45:56.412Z,96308.28
2023-01-29T23:48:23.681Z,96294.53
2023-01-29T23:50:50.393Z,96258.97
2023-01-29T23:53:17.638Z,96255.53
2023-01-29T23:55:44.545Z,96255.03
2023-01-29T23:58:11.087Z,96248.88
